createdAt,value
2023-05-16T00:01:55.902Z,5.35
2023-05-16T00:04:57.988Z,5.22
2023-05-16T00:07:59.736Z,5.38
2023-05-16T00:11:01.753Z,5.25
2023-05-16T00:14:04.153Z,5.30
2023-05-16T00:17:12.341Z,5.22
2023-05-16T00:20:17.434Z,5.40
2023-05-16T00:23:22.512Z,4.93
2023-05-16T00:26:24.300Z,5.32
2023-05-16T00:29:26.705Z,5.00
2023-05-16T00:32:28.525Z,5.13
2023-05-16T00:35:30.779Z,4.72
2023-05-16T00:38:32.528Z,5.18
2023-05-16T00:41:34.990Z,4.85
2023-05-16T00:44:36.716Z,4.88
2023-05-16T00:47:38.412Z,4.53
2023-05-16T00:50:40.925Z,4.82
2023-05-16T00:53:42.723Z,5.30
2023-05-16T00:56:44.400Z,4.30
2023-05-16T00:59:50.189Z,4.43
2023-05-16T01:02:53.738Z,4.63
2023-05-16T01:05:56.707Z,4.55
2023-05-16T01:08:58.467Z,5.40
2023-05-16T01:12:22.484Z,5.60
2023-05-16T01:15:45.585Z,5.88
2023-05-16T01:19:24.930Z,5.53
2023-05-16T01:22:35.188Z,6.38
2023-05-16T01:26:11.900Z,5.85
2023-05-16T01:29:15.948Z,5.40
2023-05-16T01:32:18.007Z,5.22
2023-05-16T01:35:23.133Z,5.53
2023-05-16T01:38:53.327Z,5.22
2023-05-16T01:42:09.510Z,5.10
2023-05-16T01:45:27.742Z,5.72
2023-05-16T01:48:38.842Z,5.05
2023-05-16T01:51:42.195Z,4.90
2023-05-16T01:54:46.628Z,5.28
2023-05-16T01:57:50.728Z,4.70
2023-05-16T02:01:04.468Z,4.90
2023-05-16T02:04:06.649Z,4.70
2023-05-16T02:07:12.952Z,4.53
2023-05-16T02:10:15.012Z,4.32
2023-05-16T02:13:17.104Z,4.10
2023-05-16T02:16:19.384Z,3.92
2023-05-16T02:19:22.563Z,4.07
2023-05-16T02:22:24.516Z,3.67
2023-05-16T02:25:26.754Z,3.53
2023-05-16T02:28:28.986Z,3.33
2023-05-16T02:31:32.724Z,2.60
2023-05-16T02:34:34.800Z,2.95
2023-05-16T02:37:37.379Z,2.55
2023-05-16T02:40:39.067Z,2.55
2023-05-16T02:43:41.022Z,2.67
2023-05-16T02:46:45.087Z,2.67
2023-05-16T02:49:46.869Z,2.65
2023-05-16T02:52:48.821Z,1.90
2023-05-16T02:55:51.050Z,1.50
2023-05-16T02:58:55.955Z,1.85
2023-05-16T03:01:58.232Z,1.70
2023-05-16T03:05:01.449Z,1.42
2023-05-16T03:08:05.660Z,1.77
2023-05-16T03:11:09.678Z,1.83
2023-05-16T03:14:12.126Z,1.52
2023-05-16T03:17:14.025Z,1.83
2023-05-16T03:20:15.797Z,2.00
2023-05-16T03:23:18.331Z,2.03
2023-05-16T03:26:21.442Z,2.47
2023-05-16T03:29:26.197Z,2.30
2023-05-16T03:32:28.285Z,2.42
2023-05-16T03:35:33.680Z,2.42
2023-05-16T03:38:36.076Z,2.42
2023-05-16T03:41:38.127Z,2.53
2023-05-16T03:44:41.382Z,2.58
2023-05-16T03:47:43.470Z,2.60
2023-05-16T03:50:45.771Z,2.25
2023-05-16T03:53:47.860Z,2.83
2023-05-16T03:56:49.872Z,2.58
2023-05-16T03:59:51.564Z,2.35
2023-05-16T04:02:53.651Z,2.70
2023-05-16T04:05:56.818Z,2.60
2023-05-16T04:08:58.517Z,2.33
2023-05-16T04:12:02.682Z,2.05
2023-05-16T04:15:05.777Z,1.98
2023-05-16T04:18:07.876Z,1.98
2023-05-16T04:21:11.582Z,2.03
2023-05-16T04:24:13.321Z,2.50
2023-05-16T04:27:15.498Z,2.53
2023-05-16T04:30:17.821Z,2.17
2023-05-16T04:33:19.885Z,2.15
2023-05-16T04:36:22.028Z,1.90
2023-05-16T04:39:24.809Z,2.40
2023-05-16T04:42:26.930Z,1.85
2023-05-16T04:45:30.093Z,1.75
2023-05-16T04:48:32.326Z,1.88
2023-05-16T04:51:37.306Z,2.20
2023-05-16T04:54:39.950Z,2.10
2023-05-16T04:57:41.643Z,2.10
2023-05-16T05:00:43.546Z,2.80
2023-05-16T05:03:48.074Z,1.95
2023-05-16T05:06:50.119Z,2.08
2023-05-16T05:09:53.686Z,2.08
2023-05-16T05:12:55.298Z,2.15
2023-05-16T05:15:57.730Z,2.25
2023-05-16T05:18:59.968Z,1.88
2023-05-16T05:22:01.999Z,1.83
2023-05-16T05:25:05.569Z,1.52
2023-05-16T05:28:07.353Z,1.80
2023-05-16T05:31:09.287Z,2.10
2023-05-16T05:34:11.161Z,2.17
2023-05-16T05:37:13.126Z,1.75
2023-05-16T05:40:17.174Z,1.95
2023-05-16T05:43:19.039Z,1.40
2023-05-16T05:46:21.168Z,1.55
2023-05-16T05:49:26.911Z,1.88
2023-05-16T05:52:28.991Z,1.67
2023-05-16T05:55:31.371Z,1.65
2023-05-16T05:58:33.753Z,2.10
2023-05-16T06:01:35.691Z,1.80
2023-05-16T06:04:37.828Z,1.52
2023-05-16T06:07:39.734Z,1.70
2023-05-16T06:10:41.577Z,1.92
2023-05-16T06:13:43.963Z,1.70
2023-05-16T06:16:45.783Z,1.40
2023-05-16T06:19:47.948Z,1.85
2023-05-16T06:22:49.865Z,1.40
2023-05-16T06:25:52.052Z,1.67
2023-05-16T06:28:54.001Z,1.70
2023-05-16T06:31:55.821Z,1.75
2023-05-16T06:34:58.984Z,1.85
2023-05-16T06:38:00.825Z,1.45
2023-05-16T06:41:05.056Z,1.88
2023-05-16T06:44:07.174Z,1.40
2023-05-16T06:47:09.092Z,1.70
2023-05-16T06:50:11.625Z,1.40
2023-05-16T06:53:14.791Z,1.63
2023-05-16T06:56:16.713Z,1.33
2023-05-16T06:59:18.910Z,2.60
2023-05-16T07:02:21.136Z,1.52
2023-05-16T07:05:23.334Z,1.73
2023-05-16T07:08:26.213Z,1.92
2023-05-16T07:11:28.598Z,1.80
2023-05-16T07:14:30.647Z,1.40
2023-05-16T07:17:32.720Z,1.88
2023-05-16T07:20:35.247Z,1.10
2023-05-16T07:23:37.593Z,1.70
2023-05-16T07:26:39.412Z,1.00
2023-05-16T07:29:41.895Z,1.92
2023-05-16T07:32:46.363Z,1.35
2023-05-16T07:35:48.346Z,1.50
2023-05-16T07:38:50.376Z,1.70
2023-05-16T07:41:52.802Z,1.50
2023-05-16T07:44:54.513Z,1.50
2023-05-16T07:47:56.653Z,1.10
2023-05-16T07:50:58.930Z,1.42
2023-05-16T07:54:01.670Z,1.83
2023-05-16T07:57:04.559Z,1.20
2023-05-16T08:00:07.624Z,1.30
2023-05-16T08:03:14.576Z,1.40
2023-05-16T08:06:17.137Z,1.58
2023-05-16T08:09:19.667Z,1.40
2023-05-16T08:12:22.151Z,1.17
2023-05-16T08:15:24.571Z,1.33
2023-05-16T08:18:26.886Z,1.33
2023-05-16T08:21:29.200Z,1.17
2023-05-16T08:24:31.720Z,1.45
2023-05-16T08:27:33.898Z,1.02
2023-05-16T08:30:35.700Z,1.27
2023-05-16T08:33:40.046Z,1.25
2023-05-16T08:36:42.349Z,1.60
2023-05-16T08:39:44.400Z,1.08
2023-05-16T08:42:46.862Z,1.50
2023-05-16T08:45:49.487Z,1.50
2023-05-16T08:48:54.809Z,1.63
2023-05-16T08:51:58.578Z,1.98
2023-05-16T08:55:14.311Z,1.50
2023-05-16T08:58:17.724Z,1.20
2023-05-16T09:01:21.045Z,2.03
2023-05-16T09:04:25.702Z,1.52
2023-05-16T09:07:27.911Z,1.83
2023-05-16T09:10:30.066Z,1.73
2023-05-16T09:13:31.994Z,1.42
2023-05-16T09:16:34.112Z,1.42
2023-05-16T09:19:44.116Z,1.00
2023-05-16T09:23:01.115Z,1.13
2023-05-16T09:26:05.705Z,1.02
2023-05-16T09:29:15.255Z,0.85
2023-05-16T09:32:17.641Z,1.42
2023-05-16T09:35:39.635Z,1.58
2023-05-16T09:38:46.057Z,0.93
2023-05-16T09:41:52.710Z,1.30
2023-05-16T09:44:56.612Z,0.93
2023-05-16T09:48:18.345Z,1.05
2023-05-16T09:51:23.003Z,0.88
2023-05-16T09:54:35.164Z,0.98
2023-05-16T09:57:39.940Z,0.90
2023-05-16T10:00:42.845Z,0.93
2023-05-16T10:03:45.202Z,1.38
2023-05-16T10:06:50.774Z,0.90
2023-05-16T10:09:55.270Z,0.95
2023-05-16T10:13:01.474Z,1.05
2023-05-16T10:16:10.195Z,1.20
2023-05-16T10:19:16.911Z,0.82
2023-05-16T10:22:20.428Z,1.40
2023-05-16T10:25:34.394Z,1.20
2023-05-16T10:28:36.978Z,0.70
2023-05-16T10:31:39.331Z,0.80
2023-05-16T10:34:42.723Z,0.90
2023-05-16T10:37:46.582Z,1.00
2023-05-16T10:40:49.925Z,0.90
2023-05-16T10:44:02.374Z,1.00
2023-05-16T10:47:05.257Z,0.90
2023-05-16T10:50:07.814Z,0.80
2023-05-16T10:53:22.238Z,1.00
2023-05-16T10:56:27.467Z,1.10
2023-05-16T10:59:29.530Z,0.80
2023-05-16T11:02:34.919Z,0.88
2023-05-16T11:05:37.368Z,1.10
2023-05-16T11:09:06.969Z,1.02
2023-05-16T11:12:10.393Z,0.82
2023-05-16T11:15:29.498Z,0.82
2023-05-16T11:18:36.442Z,1.00
2023-05-16T11:22:10.730Z,1.20
2023-05-16T11:25:15.073Z,0.82
2023-05-16T11:28:21.744Z,1.08
2023-05-16T11:31:23.972Z,1.35
2023-05-16T11:34:26.184Z,1.30
2023-05-16T11:37:28.353Z,1.00
2023-05-16T11:40:30.624Z,1.52
2023-05-16T11:43:46.243Z,1.50
2023-05-16T11:46:48.374Z,1.10
2023-05-16T11:49:50.438Z,1.25
2023-05-16T11:52:54.813Z,1.13
2023-05-16T11:55:57.067Z,0.65
2023-05-16T11:59:05.740Z,1.27
2023-05-16T12:02:10.107Z,0.85
2023-05-16T12:05:12.016Z,0.93
2023-05-16T12:08:16.810Z,0.95
2023-05-16T12:11:19.301Z,1.00
2023-05-16T12:14:23.171Z,1.00
2023-05-16T12:17:25.509Z,1.10
2023-05-16T12:20:27.647Z,0.70
2023-05-16T12:23:39.146Z,0.85
2023-05-16T12:26:42.703Z,0.80
2023-05-16T12:29:48.726Z,1.15
2023-05-16T12:33:10.730Z,1.10
2023-05-16T12:36:19.764Z,1.23
2023-05-16T12:39:29.096Z,0.90
2023-05-16T12:42:31.952Z,0.77
2023-05-16T12:45:35.613Z,0.88
2023-05-16T12:48:39.494Z,1.10
2023-05-16T12:51:49.312Z,0.85
2023-05-16T12:54:51.808Z,0.90
2023-05-16T12:57:57.090Z,0.68
2023-05-16T13:00:59.555Z,1.20
2023-05-16T13:04:05.350Z,1.10
2023-05-16T13:07:07.690Z,1.25
2023-05-16T13:10:11.764Z,1.30
2023-05-16T13:13:25.110Z,1.00
2023-05-16T13:16:34.031Z,0.90
2023-05-16T13:19:36.971Z,0.70
2023-05-16T13:22:39.777Z,1.35
2023-05-16T13:25:44.245Z,0.80
2023-05-16T13:28:46.910Z,0.65
2023-05-16T13:31:56.504Z,0.85
2023-05-16T13:34:58.864Z,0.80
2023-05-16T13:38:01.433Z,0.60
2023-05-16T13:41:03.542Z,0.80
2023-05-16T13:44:05.488Z,0.75
2023-05-16T13:47:07.836Z,0.80
2023-05-16T13:50:11.138Z,0.88
2023-05-16T13:53:13.031Z,1.20
2023-05-16T13:56:15.601Z,1.00
2023-05-16T13:59:31.181Z,1.15
2023-05-16T14:02:38.642Z,0.95
2023-05-16T14:05:46.046Z,1.02
2023-05-16T14:08:48.382Z,0.90
2023-05-16T14:11:50.577Z,0.82
2023-05-16T14:14:52.373Z,0.95
2023-05-16T14:17:54.689Z,1.05
2023-05-16T14:20:56.807Z,0.70
2023-05-16T14:23:59.248Z,0.60
2023-05-16T14:27:04.085Z,1.02
2023-05-16T14:30:06.958Z,0.60
2023-05-16T14:33:09.579Z,0.90
2023-05-16T14:36:12.328Z,0.80
2023-05-16T14:39:14.602Z,0.80
2023-05-16T14:42:19.564Z,0.80
2023-05-16T14:45:21.967Z,0.90
2023-05-16T14:48:24.606Z,0.93
2023-05-16T14:51:26.673Z,0.95
2023-05-16T14:54:29.063Z,0.70
2023-05-16T14:57:31.119Z,0.80
2023-05-16T15:00:33.256Z,0.60
2023-05-16T15:03:46.865Z,0.55
2023-05-16T15:06:56.330Z,1.20
2023-05-16T15:09:58.726Z,0.68
2023-05-16T15:13:00.965Z,0.98
2023-05-16T15:16:03.029Z,0.70
2023-05-16T15:19:05.592Z,0.95
2023-05-16T15:22:08.942Z,0.82
2023-05-16T15:25:11.148Z,0.80
2023-05-16T15:28:13.786Z,1.02
2023-05-16T15:31:16.517Z,0.80
2023-05-16T15:34:18.916Z,1.10
2023-05-16T15:37:21.684Z,1.10
2023-05-16T15:40:26.972Z,0.95
2023-05-16T15:43:29.518Z,0.60
2023-05-16T15:46:35.166Z,0.80
2023-05-16T15:49:37.536Z,0.82
2023-05-16T15:52:40.097Z,0.80
2023-05-16T15:55:43.129Z,0.80
2023-05-16T15:58:46.916Z,0.73
2023-05-16T16:01:49.283Z,0.70
2023-05-16T16:04:56.472Z,0.60
2023-05-16T16:07:58.687Z,0.73
2023-05-16T16:11:00.876Z,0.90
2023-05-16T16:14:02.787Z,0.80
2023-05-16T16:17:07.439Z,0.95
2023-05-16T16:20:10.191Z,1.13
2023-05-16T16:23:12.775Z,0.95
2023-05-16T16:26:15.676Z,1.10
2023-05-16T16:29:20.658Z,1.00
2023-05-16T16:32:22.768Z,0.80
2023-05-16T16:35:26.253Z,0.80
2023-05-16T16:38:28.329Z,0.80
2023-05-16T16:41:30.638Z,0.93
2023-05-16T16:44:32.994Z,1.10
2023-05-16T16:47:43.488Z,0.95
2023-05-16T16:50:46.301Z,1.17
2023-05-16T16:53:49.116Z,1.20
2023-05-16T16:56:53.115Z,0.98
2023-05-16T16:59:59.575Z,1.13
2023-05-16T17:03:04.624Z,1.20
2023-05-16T17:06:07.054Z,1.13
2023-05-16T17:09:13.879Z,0.95
2023-05-16T17:12:19.124Z,1.10
2023-05-16T17:15:21.943Z,1.10
2023-05-16T17:18:24.268Z,1.30
2023-05-16T17:21:27.409Z,0.90
2023-05-16T17:24:29.674Z,1.00
2023-05-16T17:27:32.555Z,1.20
2023-05-16T17:30:34.941Z,0.88
2023-05-16T17:33:37.217Z,0.80
2023-05-16T17:36:39.625Z,1.30
2023-05-16T17:39:41.784Z,0.80
2023-05-16T17:42:46.001Z,0.90
2023-05-16T17:45:48.344Z,1.25
2023-05-16T17:48:50.476Z,0.88
2023-05-16T17:51:56.860Z,1.08
2023-05-16T17:54:58.916Z,0.98
2023-05-16T17:58:01.623Z,1.50
2023-05-16T18:01:09.410Z,1.23
2023-05-16T18:04:13.464Z,1.55
2023-05-16T18:07:15.758Z,1.42
2023-05-16T18:10:18.272Z,1.20
2023-05-16T18:13:21.958Z,1.00
2023-05-16T18:16:24.689Z,1.30
2023-05-16T18:19:26.917Z,1.30
2023-05-16T18:22:28.928Z,1.27
2023-05-16T18:25:31.472Z,1.33
2023-05-16T18:28:34.006Z,1.33
2023-05-16T18:31:38.730Z,1.50
2023-05-16T18:34:41.182Z,1.23
2023-05-16T18:37:44.356Z,1.55
2023-05-16T18:40:48.075Z,1.50
2023-05-16T18:43:50.229Z,1.38
2023-05-16T18:46:52.273Z,1.60
2023-05-16T18:49:54.704Z,1.85
2023-05-16T18:52:57.937Z,1.98
2023-05-16T18:56:00.444Z,1.75
2023-05-16T18:59:02.485Z,1.70
2023-05-16T19:02:04.938Z,2.20
2023-05-16T19:05:07.553Z,1.67
2023-05-16T19:08:09.640Z,2.58
2023-05-16T19:11:11.692Z,1.92
2023-05-16T19:14:13.725Z,2.20
2023-05-16T19:17:15.641Z,1.92
2023-05-16T19:20:17.531Z,2.30
2023-05-16T19:23:19.373Z,2.47
2023-05-16T19:26:23.346Z,2.25
2023-05-16T19:29:25.237Z,2.20
2023-05-16T19:32:27.416Z,2.33
2023-05-16T19:35:29.985Z,2.08
2023-05-16T19:38:32.371Z,2.15
2023-05-16T19:41:34.286Z,2.50
2023-05-16T19:44:36.081Z,2.55
2023-05-16T19:47:38.235Z,2.22
2023-05-16T19:50:40.119Z,2.38
2023-05-16T19:53:43.065Z,2.15
2023-05-16T19:56:44.963Z,2.55
2023-05-16T19:59:47.875Z,2.28
2023-05-16T20:02:50.246Z,2.20
2023-05-16T20:05:52.148Z,2.17
2023-05-16T20:08:53.759Z,2.30
2023-05-16T20:11:57.449Z,2.20
2023-05-16T20:15:01.788Z,2.53
2023-05-16T20:18:03.803Z,2.45
2023-05-16T20:21:06.427Z,2.50
2023-05-16T20:24:08.293Z,2.72
2023-05-16T20:27:11.612Z,2.65
2023-05-16T20:30:14.515Z,2.45
2023-05-16T20:33:17.224Z,2.40
2023-05-16T20:36:19.774Z,2.50
2023-05-16T20:39:22.392Z,2.20
2023-05-16T20:42:24.536Z,2.40
2023-05-16T20:45:28.963Z,2.92
2023-05-16T20:48:31.190Z,2.47
2023-05-16T20:51:33.302Z,2.67
2023-05-16T20:54:35.211Z,2.60
2023-05-16T20:57:43.880Z,2.65
2023-05-16T21:00:45.921Z,3.10
2023-05-16T21:03:47.677Z,2.60
2023-05-16T21:06:49.335Z,2.60
2023-05-16T21:09:51.231Z,2.67
2023-05-16T21:12:53.164Z,2.78
2023-05-16T21:15:55.295Z,2.88
2023-05-16T21:18:57.563Z,3.15
2023-05-16T21:21:59.704Z,3.20
2023-05-16T21:25:02.010Z,2.67
2023-05-16T21:28:04.344Z,2.67
2023-05-16T21:31:06.599Z,2.85
2023-05-16T21:34:09.911Z,2.47
2023-05-16T21:37:12.092Z,2.67
2023-05-16T21:40:24.812Z,3.00
2023-05-16T21:43:26.606Z,2.78
2023-05-16T21:46:28.502Z,3.25
2023-05-16T21:49:30.377Z,2.72
2023-05-16T21:52:32.213Z,2.78
2023-05-16T21:55:34.195Z,2.80
2023-05-16T21:58:37.762Z,2.35
2023-05-16T22:01:39.601Z,2.67
2023-05-16T22:04:41.281Z,3.03
2023-05-16T22:07:43.244Z,3.38
2023-05-16T22:10:44.994Z,2.85
2023-05-16T22:13:47.024Z,3.03
2023-05-16T22:16:48.865Z,3.00
2023-05-16T22:19:50.918Z,3.15
2023-05-16T22:22:52.933Z,3.45
2023-05-16T22:25:55.077Z,2.25
2023-05-16T22:28:56.626Z,2.60
2023-05-16T22:31:59.789Z,3.20
2023-05-16T22:35:01.634Z,2.80
2023-05-16T22:38:03.521Z,2.65
2023-05-16T22:41:05.415Z,2.70
2023-05-16T22:44:07.359Z,2.53
2023-05-16T22:47:09.447Z,2.28
2023-05-16T22:50:11.505Z,3.03
2023-05-16T22:53:13.260Z,3.00
2023-05-16T22:56:15.225Z,2.95
2023-05-16T22:59:17.369Z,2.45
2023-05-16T23:02:19.508Z,2.95
2023-05-16T23:05:21.582Z,3.10
2023-05-16T23:08:25.208Z,2.60
2023-05-16T23:11:27.171Z,2.45
2023-05-16T23:14:28.910Z,2.90
2023-05-16T23:17:30.638Z,2.72
2023-05-16T23:20:32.742Z,2.42
2023-05-16T23:23:34.536Z,2.70
2023-05-16T23:26:36.421Z,2.47
2023-05-16T23:29:38.206Z,1.75
2023-05-16T23:32:40.047Z,2.45
2023-05-16T23:35:41.911Z,2.55
2023-05-16T23:38:44.019Z,1.83
2023-05-16T23:41:45.896Z,2.00
2023-05-16T23:44:48.975Z,1.95
2023-05-16T23:47:51.475Z,2.55
2023-05-16T23:50:53.250Z,2.10
2023-05-16T23:53:55.112Z,2.13
2023-05-16T23:56:57.464Z,2.17
2023-05-16T23:59:59.438Z,2.35
